Time;durP1;ratioP1;P1;durP2;ratioP2;P2;SDS_P1;SDS_P2;PMS_P1;PMS_P2;Temp;Humidity;BMP_temperature;BMP_pressure;BME280_temperature;BME280_humidity;BME280_pressure;Samples;Min_cycle;Max_cycle;Signal;HPM_P1;HPM_P2
2021/11/22 00:01:35;;;;;;;;;;;;;;;1.92;71.13;97857.97;6186267;23;20007;-69
2021/11/22 00:04:03;;;;;;;;;;;;;;;1.91;71.42;97857.09;6187241;23;20008;-70
2021/11/22 00:06:29;;;;;;;;;;;;;;;1.97;70.84;97858.47;6185157;23;19920;-69
2021/11/22 00:08:55;;;;;;;;;;;;;;;2.00;70.95;97867.84;6184652;23;19927;-68
2021/11/22 00:11:20;;;;;;;;;;;;;;;1.98;71.20;97875.78;6186367;23;19928;-70
2021/11/22 00:13:46;;;;;;;;;;;;;;;2.00;70.48;97871.25;6186011;23;20331;-68
2021/11/22 00:16:12;;;;;;;;;;;;;;;2.05;70.53;97871.75;6185074;23;20054;-68
2021/11/22 00:18:37;;;;;;;;;;;;;;;1.91;70.73;97879.75;6184703;23;19928;-67
2021/11/22 00:21:03;;;;;;;;;;;;;;;1.93;71.16;97883.06;6185283;23;19925;-67
2021/11/22 00:23:29;;;;;;;;;;;;;;;1.92;71.39;97887.47;6183001;23;19920;-68
2021/11/22 00:25:55;;;;;;;;;;;;;;;1.94;70.84;97889.94;6185551;23;19920;-68
2021/11/22 00:28:20;;;;;;;;;;;;;;;1.98;70.74;97899.25;6185693;23;19966;-68
2021/11/22 00:30:55;;;;;;;;;;;;;;;2.01;70.51;97895.56;6186561;23;19994;-73
2021/11/22 00:33:26;;;;;;;;;;;;;;;1.92;70.83;97912.72;6184520;23;19921;-69
2021/11/22 00:36:01;;;;;;;;;;;;;;;1.91;70.75;97911.84;6184653;23;20335;-70
2021/11/22 00:38:27;;;;;;;;;;;;;;;1.84;70.73;97925.44;6185885;23;19926;-68
2021/11/22 00:40:54;;;;;;;;;;;;;;;1.79;70.59;97923.13;6188010;23;19972;-72
2021/11/22 00:43:22;;;;;;;;;;;;;;;1.85;69.56;97922.72;6187644;23;19958;-68
2021/11/22 00:45:51;;;;;;;;;;;;;;;1.92;69.40;97923.13;6187021;23;19920;-74
2021/11/22 00:48:20;;;;;;;;;;;;;;;1.85;68.93;97924.50;6185982;23;19986;-72
2021/11/22 00:50:45;;;;;;;;;;;;;;;1.74;68.84;97922.63;6185407;23;19921;-69
2021/11/22 00:53:11;;;;;;;;;;;;;;;1.72;68.55;97922.75;6186492;23;19928;-70
2021/11/22 00:55:37;;;;;;;;;;;;;;;1.73;68.58;97921.81;6186762;23;19920;-70
2021/11/22 00:58:02;;;;;;;;;;;;;;;1.66;68.15;97919.69;6185913;23;19955;-71
2021/11/22 01:00:31;;;;;;;;;;;;;;;1.76;68.41;97929.41;6184890;23;19948;-70
2021/11/22 01:02:57;;;;;;;;;;;;;;;1.77;68.45;97925.84;6186263;23;19927;-70
2021/11/22 01:05:22;;;;;;;;;;;;;;;1.83;68.00;97928.97;6186858;23;19943;-69
2021/11/22 01:07:48;;;;;;;;;;;;;;;1.75;67.77;97930.31;6186030;23;19920;-71
2021/11/22 01:10:14;;;;;;;;;;;;;;;1.76;67.40;97939.00;6184233;23;19928;-72
2021/11/22 01:12:40;;;;;;;;;;;;;;;1.81;67.14;97936.06;6186233;23;20339;-72
2021/11/22 01:15:08;;;;;;;;;;;;;;;1.84;68.13;97935.84;6185267;23;19920;-71
2021/11/22 01:17:34;;;;;;;;;;;;;;;1.78;67.52;97942.31;6183877;23;20004;-71
2021/11/22 01:20:00;;;;;;;;;;;;;;;1.81;67.97;97941.25;6184365;23;19920;-70
2021/11/22 01:22:28;;;;;;;;;;;;;;;1.80;67.93;97950.06;6184044;23;19942;-73
2021/11/22 01:24:55;;;;;;;;;;;;;;;1.69;68.15;97959.41;6186343;23;20033;-69
2021/11/22 01:27:20;;;;;;;;;;;;;;;1.60;68.43;97960.06;6185581;23;19927;-67
2021/11/22 01:29:49;;;;;;;;;;;;;;;1.66;68.74;97970.06;6183824;23;19920;-68
2021/11/22 01:32:14;;;;;;;;;;;;;;;1.65;68.82;97957.97;6185356;23;20028;-69
2021/11/22 01:34:43;;;;;;;;;;;;;;;1.65;68.11;97967.56;6183403;23;19948;-67
2021/11/22 01:37:08;;;;;;;;;;;;;;;1.62;68.46;97968.63;6186633;23;19920;-69
2021/11/22 01:39:34;;;;;;;;;;;;;;;1.62;68.67;97968.63;6185097;23;19970;-67
2021/11/22 01:42:00;;;;;;;;;;;;;;;1.59;67.93;97969.63;6184295;23;19920;-68
2021/11/22 01:44:25;;;;;;;;;;;;;;;1.66;68.84;97977.88;6184189;23;19999;-68
2021/11/22 01:46:51;;;;;;;;;;;;;;;1.77;68.44;97977.16;6183141;23;19920;-69
2021/11/22 01:49:17;;;;;;;;;;;;;;;1.78;68.00;97984.88;6184584;23;20216;-67
2021/11/22 01:51:43;;;;;;;;;;;;;;;1.63;67.66;97979.84;6184481;23;19920;-66
2021/11/22 01:54:08;;;;;;;;;;;;;;;1.68;68.05;97981.19;6184694;23;19920;-69
2021/11/22 01:56:34;;;;;;;;;;;;;;;1.74;68.26;97980.78;6182342;23;20240;-67
2021/11/22 01:59:00;;;;;;;;;;;;;;;1.66;68.28;97985.69;6158099;23;20340;-68
2021/11/22 02:01:26;;;;;;;;;;;;;;;1.54;68.98;97995.16;6183302;23;19978;-70
2021/11/22 02:03:51;;;;;;;;;;;;;;;1.45;68.81;97996.63;6185420;23;19943;-69
2021/11/22 02:06:17;;;;;;;;;;;;;;;1.46;69.32;97994.88;6185057;23;19991;-72
2021/11/22 02:08:45;;;;;;;;;;;;;;;1.57;69.67;97999.34;6187709;23;20007;-69
2021/11/22 02:11:12;;;;;;;;;;;;;;;1.71;68.98;97991.44;6186007;23;19926;-69
2021/11/22 02:13:39;;;;;;;;;;;;;;;1.69;68.93;97984.66;6185235;23;19920;-68
2021/11/22 02:16:05;;;;;;;;;;;;;;;1.61;69.16;97995.59;6185836;23;19924;-67
2021/11/22 02:18:30;;;;;;;;;;;;;;;1.47;69.77;98000.91;6186748;23;20296;-67
2021/11/22 02:20:56;;;;;;;;;;;;;;;1.49;69.93;98004.25;6185890;23;19920;-70
2021/11/22 02:23:22;;;;;;;;;;;;;;;1.52;69.67;98001.41;6185481;23;19942;-70
2021/11/22 02:25:47;;;;;;;;;;;;;;;1.47;69.59;98006.09;6185350;23;20327;-70
2021/11/22 02:28:13;;;;;;;;;;;;;;;1.55;69.60;98006.44;6185764;23;20328;-71
2021/11/22 02:30:40;;;;;;;;;;;;;;;1.51;69.84;98010.16;6185651;23;19920;-67
2021/11/22 02:33:07;;;;;;;;;;;;;;;1.38;69.54;98020.59;6187301;23;19920;-67
2021/11/22 02:35:35;;;;;;;;;;;;;;;1.30;69.62;98015.88;6184483;23;19920;-70
2021/11/22 02:38:01;;;;;;;;;;;;;;;1.23;70.17;98020.63;6184332;23;20363;-70
2021/11/22 02:40:27;;;;;;;;;;;;;;;1.22;70.84;98023.34;6182649;23;19920;-69
2021/11/22 02:42:52;;;;;;;;;;;;;;;1.39;70.95;98030.88;6185213;23;19928;-70
2021/11/22 02:45:19;;;;;;;;;;;;;;;1.37;71.01;98030.19;6183903;23;20224;-68
2021/11/22 02:47:46;;;;;;;;;;;;;;;1.36;71.51;98041.53;6184250;23;19947;-68
2021/11/22 02:50:12;;;;;;;;;;;;;;;1.46;71.21;98046.97;6183511;23;19920;-70
2021/11/22 02:52:38;;;;;;;;;;;;;;;1.51;71.14;98044.88;6183920;23;19927;-68
2021/11/22 02:55:05;;;;;;;;;;;;;;;1.55;71.87;98045.53;6183902;23;19959;-70
2021/11/22 02:57:31;;;;;;;;;;;;;;;1.41;71.87;98049.03;6184251;23;19927;-69
2021/11/22 02:59:56;;;;;;;;;;;;;;;1.46;71.54;98041.75;6185291;23;20343;-71
2021/11/22 03:02:22;;;;;;;;;;;;;;;1.39;71.18;98046.50;6186262;23;19963;-71
2021/11/22 03:04:47;;;;;;;;;;;;;;;1.36;70.68;98051.94;6184169;23;20303;-74
2021/11/22 03:07:13;;;;;;;;;;;;;;;1.35;70.54;98050.28;6182560;23;20145;-70
2021/11/22 03:09:39;;;;;;;;;;;;;;;1.42;70.07;98055.91;6186669;23;19920;-71
2021/11/22 03:12:06;;;;;;;;;;;;;;;1.43;69.32;98062.78;6186169;23;19928;-68
2021/11/22 03:14:32;;;;;;;;;;;;;;;1.50;68.81;98061.44;6187383;23;19920;-70
2021/11/22 03:16:58;;;;;;;;;;;;;;;1.54;68.40;98054.28;6188821;23;19920;-69
2021/11/22 03:19:23;;;;;;;;;;;;;;;1.36;68.23;98062.34;6187127;23;20030;-74
2021/11/22 03:21:49;;;;;;;;;;;;;;;1.30;68.07;98067.97;6187618;23;20004;-69
2021/11/22 03:24:15;;;;;;;;;;;;;;;1.29;67.77;98074.94;6186456;23;19927;-70
2021/11/22 03:26:41;;;;;;;;;;;;;;;1.26;67.24;98076.94;6188110;23;19925;-70
2021/11/22 03:29:07;;;;;;;;;;;;;;;1.30;67.65;98073.19;6187859;23;19982;-70
2021/11/22 03:31:33;;;;;;;;;;;;;;;1.36;67.83;98077.13;6186845;23;19920;-70
2021/11/22 03:34:00;;;;;;;;;;;;;;;1.44;67.20;98074.88;6186159;23;20043;-70
2021/11/22 03:36:26;;;;;;;;;;;;;;;1.37;66.32;98071.00;6186879;23;19920;-70
2021/11/22 03:38:52;;;;;;;;;;;;;;;1.39;65.69;98088.19;6186380;23;19920;-70
2021/11/22 03:41:18;;;;;;;;;;;;;;;1.40;64.83;98082.06;6187702;23;19942;-70
2021/11/22 03:43:56;;;;;;;;;;;;;;;1.39;64.84;98082.97;6184680;23;19924;-71
2021/11/22 03:46:21;;;;;;;;;;;;;;;1.28;63.81;98085.44;6187033;23;19920;-69
2021/11/22 03:48:47;;;;;;;;;;;;;;;1.24;63.82;98081.38;6186705;23;20314;-70
2021/11/22 03:51:17;;;;;;;;;;;;;;;1.26;63.25;98092.56;6186896;23;19920;-72
2021/11/22 03:53:43;;;;;;;;;;;;;;;1.15;63.32;98084.56;6188329;23;19920;-69
2021/11/22 03:56:08;;;;;;;;;;;;;;;1.18;63.10;98089.59;6187985;23;19927;-68
2021/11/22 03:58:34;;;;;;;;;;;;;;;1.26;62.11;98092.56;6187307;23;20328;-70
2021/11/22 04:01:00;;;;;;;;;;;;;;;1.21;62.42;98105.00;6186613;23;19920;-72
2021/11/22 04:03:26;;;;;;;;;;;;;;;1.15;62.28;98110.59;6187403;23;20007;-72
2021/11/22 04:05:51;;;;;;;;;;;;;;;0.97;63.06;98118.66;6186654;23;19927;-72
2021/11/22 04:08:17;;;;;;;;;;;;;;;0.95;62.96;98120.53;6186539;23;19963;-68
2021/11/22 04:10:43;;;;;;;;;;;;;;;0.97;63.01;98121.25;6187281;23;19927;-69
2021/11/22 04:13:09;;;;;;;;;;;;;;;1.00;63.49;98123.69;6160900;23;19920;-71
2021/11/22 04:15:35;;;;;;;;;;;;;;;1.07;62.99;98124.13;6186760;23;19920;-74
2021/11/22 04:18:01;;;;;;;;;;;;;;;1.06;62.88;98136.31;6185966;23;19920;-68
2021/11/22 04:20:27;;;;;;;;;;;;;;;1.11;62.73;98134.25;6185737;23;19920;-70
2021/11/22 04:22:52;;;;;;;;;;;;;;;1.25;62.89;98142.97;6187177;23;19920;-67
2021/11/22 04:25:19;;;;;;;;;;;;;;;1.34;63.05;98150.16;6187119;23;19995;-70
2021/11/22 04:27:46;;;;;;;;;;;;;;;1.36;62.28;98156.13;6186733;23;19920;-75
2021/11/22 04:30:12;;;;;;;;;;;;;;;1.39;62.34;98152.50;6186852;23;19943;-73
2021/11/22 04:32:38;;;;;;;;;;;;;;;1.39;62.58;98171.53;6186419;23;19956;-68
2021/11/22 04:35:05;;;;;;;;;;;;;;;1.40;63.25;98178.44;6187487;23;19954;-71
2021/11/22 04:37:31;;;;;;;;;;;;;;;1.39;62.99;98174.16;6186691;23;19920;-69
2021/11/22 04:39:57;;;;;;;;;;;;;;;1.36;63.24;98176.13;6186830;23;19920;-69
2021/11/22 04:42:23;;;;;;;;;;;;;;;1.29;63.54;98180.88;6187010;23;19927;-69
2021/11/22 04:44:49;;;;;;;;;;;;;;;1.27;64.45;98187.94;6185271;23;20354;-69
2021/11/22 04:47:15;;;;;;;;;;;;;;;1.32;63.51;98188.53;6187284;23;19959;-70
2021/11/22 04:49:40;;;;;;;;;;;;;;;1.36;63.89;98200.41;6186157;23;19924;-70
2021/11/22 04:52:07;;;;;;;;;;;;;;;1.40;64.12;98209.69;6186872;23;19920;-71
2021/11/22 04:54:36;;;;;;;;;;;;;;;1.43;64.21;98212.13;6186058;23;19966;-70
2021/11/22 04:57:02;;;;;;;;;;;;;;;1.37;64.15;98209.03;6185158;23;20261;-73
2021/11/22 04:59:28;;;;;;;;;;;;;;;1.48;63.88;98213.59;6185222;23;19920;-75
2021/11/22 05:01:54;;;;;;;;;;;;;;;1.41;64.03;98221.78;6187266;23;19924;-69
2021/11/22 05:04:20;;;;;;;;;;;;;;;1.48;64.42;98224.00;6185523;23;20019;-71
2021/11/22 05:06:45;;;;;;;;;;;;;;;1.57;64.17;98226.00;6185811;23;19928;-69
2021/11/22 05:09:11;;;;;;;;;;;;;;;1.54;63.73;98237.47;6186774;23;20251;-70
2021/11/22 05:11:37;;;;;;;;;;;;;;;1.47;63.60;98241.41;6186825;23;20327;-72
2021/11/22 05:14:02;;;;;;;;;;;;;;;1.56;63.82;98240.00;6186768;23;19928;-72
2021/11/22 05:16:28;;;;;;;;;;;;;;;1.43;63.80;98252.94;6184760;23;19920;-72
2021/11/22 05:18:56;;;;;;;;;;;;;;;1.40;63.40;98261.78;6186489;23;19931;-72
2021/11/22 05:21:21;;;;;;;;;;;;;;;1.41;63.57;98268.69;6183910;23;19927;-71
2021/11/22 05:23:48;;;;;;;;;;;;;;;1.36;63.63;98275.09;6183868;23;19920;-70
2021/11/22 05:26:14;;;;;;;;;;;;;;;1.34;63.25;98282.19;6185603;23;19970;-72
2021/11/22 05:28:40;;;;;;;;;;;;;;;1.39;62.86;98283.56;6185825;23;19999;-72
2021/11/22 05:31:06;;;;;;;;;;;;;;;1.34;62.56;98288.22;6185630;23;19928;-69
2021/11/22 05:33:31;;;;;;;;;;;;;;;1.27;62.70;98289.50;6183895;23;19940;-71
2021/11/22 05:35:57;;;;;;;;;;;;;;;1.22;61.86;98294.19;6184240;23;19943;-71
2021/11/22 05:38:23;;;;;;;;;;;;;;;1.22;61.22;98304.59;6185406;23;19920;-71
2021/11/22 05:40:48;;;;;;;;;;;;;;;1.18;61.13;98297.91;6159670;23;19920;-71
2021/11/22 05:43:14;;;;;;;;;;;;;;;1.11;60.53;98300.06;6186776;23;20005;-72
2021/11/22 05:45:40;;;;;;;;;;;;;;;1.04;60.55;98312.59;6184101;23;19920;-71
2021/11/22 05:48:07;;;;;;;;;;;;;;;1.01;60.31;98307.59;6160092;23;20446;-72
2021/11/22 05:50:33;;;;;;;;;;;;;;;1.09;59.90;98317.53;6184783;23;19950;-70
2021/11/22 05:53:01;;;;;;;;;;;;;;;0.99;59.55;98322.44;6188281;23;20307;-70
2021/11/22 05:55:33;;;;;;;;;;;;;;;1.06;59.39;98328.13;6161011;23;20233;-71
2021/11/22 05:57:59;;;;;;;;;;;;;;;1.18;60.08;98344.78;6187014;23;19924;-72
2021/11/22 06:00:25;;;;;;;;;;;;;;;1.20;60.16;98342.94;6186046;23;20407;-70
2021/11/22 06:02:50;;;;;;;;;;;;;;;1.16;60.46;98352.69;6186447;23;19994;-70
2021/11/22 06:05:16;;;;;;;;;;;;;;;1.12;60.47;98357.25;6160065;23;19920;-70
2021/11/22 06:07:42;;;;;;;;;;;;;;;1.13;60.69;98353.72;6159877;23;19927;-71
2021/11/22 06:10:07;;;;;;;;;;;;;;;1.10;60.49;98361.69;6189343;23;19982;-72
2021/11/22 06:12:33;;;;;;;;;;;;;;;1.03;60.53;98364.75;6186964;23;19999;-70
2021/11/22 06:14:59;;;;;;;;;;;;;;;0.99;59.85;98377.13;6186827;23;19943;-69
2021/11/22 06:17:24;;;;;;;;;;;;;;;1.11;59.96;98381.59;6185262;23;20391;-75
2021/11/22 06:19:52;;;;;;;;;;;;;;;1.18;60.46;98381.22;6184596;23;19921;-70
2021/11/22 06:22:18;;;;;;;;;;;;;;;1.27;60.05;98383.28;6186276;23;20490;-70
2021/11/22 06:24:43;;;;;;;;;;;;;;;1.04;60.44;98385.47;6183639;23;19969;-70
2021/11/22 06:27:09;;;;;;;;;;;;;;;1.03;59.57;98398.59;6186774;23;19924;-69
2021/11/22 06:29:37;;;;;;;;;;;;;;;0.97;59.70;98399.78;6185019;23;19920;-71
2021/11/22 06:32:09;;;;;;;;;;;;;;;1.12;59.61;98401.50;6186877;23;19952;-72
2021/11/22 06:34:35;;;;;;;;;;;;;;;1.28;58.98;98416.22;6185880;23;19927;-74
2021/11/22 06:37:01;;;;;;;;;;;;;;;1.39;57.64;98411.19;6184347;23;19921;-69
2021/11/22 06:39:27;;;;;;;;;;;;;;;1.43;57.76;98430.94;6184162;23;19952;-69
2021/11/22 06:41:52;;;;;;;;;;;;;;;1.29;57.35;98441.34;6185755;23;19920;-70
2021/11/22 06:44:21;;;;;;;;;;;;;;;1.08;58.14;98441.66;6192641;23;19920;-72
2021/11/22 06:46:48;;;;;;;;;;;;;;;1.11;57.43;98451.91;6191307;23;19927;-71
2021/11/22 06:49:14;;;;;;;;;;;;;;;1.06;58.25;98458.28;6190730;23;19924;-74
2021/11/22 06:51:40;;;;;;;;;;;;;;;1.08;57.82;98465.09;6189012;23;19920;-75
2021/11/22 06:54:06;;;;;;;;;;;;;;;1.15;57.32;98469.94;6185512;23;19920;-70
2021/11/22 06:56:31;;;;;;;;;;;;;;;1.48;57.04;98471.50;6187386;23;19982;-70
2021/11/22 06:58:57;;;;;;;;;;;;;;;1.71;56.54;98481.41;6188061;23;19943;-72
2021/11/22 07:01:23;;;;;;;;;;;;;;;1.96;54.09;98490.34;6188643;23;20256;-71
2021/11/22 07:03:52;;;;;;;;;;;;;;;2.04;53.05;98514.16;6186374;23;19971;-75
2021/11/22 07:06:21;;;;;;;;;;;;;;;1.92;52.79;98518.38;6185313;23;19920;-71
2021/11/22 07:08:46;;;;;;;;;;;;;;;1.72;52.06;98532.59;6185637;23;19920;-72
2021/11/22 07:11:12;;;;;;;;;;;;;;;1.57;51.81;98529.13;6185927;23;19982;-74
2021/11/22 07:13:38;;;;;;;;;;;;;;;1.52;50.96;98535.53;6186335;23;20429;-72
2021/11/22 07:16:04;;;;;;;;;;;;;;;1.36;50.65;98539.03;6186776;23;19920;-71
2021/11/22 07:18:30;;;;;;;;;;;;;;;0.95;50.21;98531.81;6186825;23;19951;-74
2021/11/22 07:20:56;;;;;;;;;;;;;;;0.71;50.53;98565.22;6186156;23;19995;-72
2021/11/22 07:23:22;;;;;;;;;;;;;;;0.65;51.26;98566.41;6184823;23;19970;-68
2021/11/22 07:25:52;;;;;;;;;;;;;;;0.38;51.40;98571.34;6186037;23;20340;-72
2021/11/22 07:28:17;;;;;;;;;;;;;;;0.27;51.60;98592.69;6185973;23;19920;-71
2021/11/22 07:30:43;;;;;;;;;;;;;;;0.17;52.03;98591.50;6159816;23;19920;-70
2021/11/22 07:33:10;;;;;;;;;;;;;;;0.17;52.36;98586.31;6185836;23;19927;-72
2021/11/22 07:35:36;;;;;;;;;;;;;;;0.08;52.93;98593.66;6184697;23;20351;-72
2021/11/22 07:38:01;;;;;;;;;;;;;;;0.06;52.46;98594.66;6185137;23;20007;-73
2021/11/22 07:40:30;;;;;;;;;;;;;;;0.20;52.44;98604.34;6160957;23;19920;-69
2021/11/22 07:42:55;;;;;;;;;;;;;;;0.41;52.29;98604.97;6185984;23;20320;-69
2021/11/22 07:45:22;;;;;;;;;;;;;;;0.78;51.57;98621.22;6189000;23;19920;-71
2021/11/22 07:47:49;;;;;;;;;;;;;;;0.92;51.19;98625.69;6111069;23;20059;-69
2021/11/22 07:50:15;;;;;;;;;;;;;;;0.87;51.23;98628.53;6186070;23;19931;-74
2021/11/22 07:52:41;;;;;;;;;;;;;;;0.87;51.51;98638.09;6185815;23;19925;-71
2021/11/22 07:55:07;;;;;;;;;;;;;;;1.31;50.77;98632.22;6185752;23;19966;-71
2021/11/22 07:57:33;;;;;;;;;;;;;;;1.74;50.18;98640.19;6162095;23;19923;-70
2021/11/22 07:59:59;;;;;;;;;;;;;;;2.68;48.21;98641.63;6188293;23;19966;-69
2021/11/22 08:02:24;;;;;;;;;;;;;;;2.69;47.11;98653.75;6188096;23;19932;-73
2021/11/22 08:04:50;;;;;;;;;;;;;;;2.55;47.35;98651.13;6187399;23;19920;-71
2021/11/22 08:07:18;;;;;;;;;;;;;;;3.09;46.53;98655.69;6161622;23;19947;-71
2021/11/22 08:09:59;;;;;;;;;;;;;;;4.06;45.15;98648.56;6162212;23;19944;-72
2021/11/22 08:12:26;;;;;;;;;;;;;;;4.80;43.96;98661.03;6188613;23;19995;-72
2021/11/22 08:14:52;;;;;;;;;;;;;;;5.31;41.32;98665.31;6187656;23;19927;-72
2021/11/22 08:17:18;;;;;;;;;;;;;;;5.67;40.53;98659.19;6186218;23;20445;-73
2021/11/22 08:19:44;;;;;;;;;;;;;;;4.81;41.26;98670.53;6189567;23;19920;-71
2021/11/22 08:22:10;;;;;;;;;;;;;;;4.24;42.30;98672.66;6188650;23;19920;-71
2021/11/22 08:24:36;;;;;;;;;;;;;;;3.67;43.79;98666.78;6186276;23;20298;-73
2021/11/22 08:27:01;;;;;;;;;;;;;;;3.22;44.18;98687.91;6187916;23;19967;-71
2021/11/22 08:29:27;;;;;;;;;;;;;;;2.90;45.28;98687.31;6189890;23;19999;-72
2021/11/22 08:31:53;;;;;;;;;;;;;;;2.89;45.79;98698.69;6188433;23;19985;-72
2021/11/22 08:34:18;;;;;;;;;;;;;;;2.53;45.53;98689.53;6164118;23;19921;-72
2021/11/22 08:36:44;;;;;;;;;;;;;;;2.56;46.15;98699.81;6189608;23;19928;-74
2021/11/22 08:39:10;;;;;;;;;;;;;;;2.28;46.27;98688.41;6164630;23;19920;-71
2021/11/22 08:41:36;;;;;;;;;;;;;;;1.85;46.39;98688.28;6189359;23;20321;-71
2021/11/22 08:44:02;;;;;;;;;;;;;;;1.98;46.75;98704.91;6212391;23;19920;-73
2021/11/22 08:46:29;;;;;;;;;;;;;;;1.97;45.98;98698.03;6187723;23;19920;-71
2021/11/22 08:48:54;;;;;;;;;;;;;;;1.84;46.79;98712.66;6188830;23;20302;-73
2021/11/22 08:51:20;;;;;;;;;;;;;;;1.52;47.18;98718.78;6187888;23;19943;-74
2021/11/22 08:53:46;;;;;;;;;;;;;;;1.41;47.24;98713.31;6161143;23;19941;-71
2021/11/22 08:56:12;;;;;;;;;;;;;;;1.09;47.95;98726.31;6185327;23;19926;-71
2021/11/22 08:58:39;;;;;;;;;;;;;;;1.02;47.80;98719.75;6185278;23;19994;-71
2021/11/22 09:01:05;;;;;;;;;;;;;;;0.96;48.53;98723.53;6185413;23;19928;-73
2021/11/22 09:03:30;;;;;;;;;;;;;;;1.09;48.44;98727.16;6185549;23;20291;-71
2021/11/22 09:05:59;;;;;;;;;;;;;;;1.18;48.47;98730.19;6185715;23;19950;-72
2021/11/22 09:08:30;;;;;;;;;;;;;;;1.22;47.91;98735.16;6186879;23;20399;-72
2021/11/22 09:10:56;;;;;;;;;;;;;;;1.03;48.19;98737.06;6187393;23;19927;-73
2021/11/22 09:13:25;;;;;;;;;;;;;;;1.00;48.05;98747.63;6186013;23;20529;-71
2021/11/22 09:15:51;;;;;;;;;;;;;;;0.98;48.18;98745.09;6161121;23;19997;-71
2021/11/22 09:18:17;;;;;;;;;;;;;;;0.70;47.64;98746.56;6184991;23;20355;-72
2021/11/22 09:20:42;;;;;;;;;;;;;;;0.60;47.86;98746.19;6185498;23;19920;-74
2021/11/22 09:23:08;;;;;;;;;;;;;;;0.41;47.81;98745.44;6187201;23;19920;-72
2021/11/22 09:25:35;;;;;;;;;;;;;;;0.35;47.75;98757.00;6186069;23;19934;-74
2021/11/22 09:28:01;;;;;;;;;;;;;;;0.42;48.35;98758.34;6187020;23;19926;-74
2021/11/22 09:30:27;;;;;;;;;;;;;;;0.55;46.84;98763.78;6160479;23;19920;-72
2021/11/22 09:32:53;;;;;;;;;;;;;;;0.44;47.72;98766.94;6188620;23;20011;-71
2021/11/22 09:35:20;;;;;;;;;;;;;;;0.56;47.31;98775.88;6160880;23;20328;-70
2021/11/22 09:37:47;;;;;;;;;;;;;;;0.76;47.47;98767.06;6186467;23;19927;-72
2021/11/22 09:40:12;;;;;;;;;;;;;;;0.72;47.35;98781.13;6187611;23;20347;-73
2021/11/22 09:42:38;;;;;;;;;;;;;;;0.53;47.77;98786.44;6185603;23;19926;-71
2021/11/22 09:45:05;;;;;;;;;;;;;;;0.48;47.94;98786.66;6187553;23;19924;-73
2021/11/22 09:47:31;;;;;;;;;;;;;;;0.50;48.07;98802.22;6188523;23;19920;-69
2021/11/22 09:49:57;;;;;;;;;;;;;;;0.51;48.63;98797.84;6187061;23;19943;-73
2021/11/22 09:52:24;;;;;;;;;;;;;;;0.56;48.09;98801.03;6187614;23;19924;-72
2021/11/22 09:54:49;;;;;;;;;;;;;;;0.55;48.12;98809.75;6188034;23;19970;-70
2021/11/22 09:57:15;;;;;;;;;;;;;;;0.63;48.25;98812.84;6113976;23;19924;-71
2021/11/22 09:59:42;;;;;;;;;;;;;;;0.78;48.82;98813.81;6186374;23;19947;-71
2021/11/22 10:06:02;;;;;;;;;;;;;;;0.87;47.38;98825.53;6190815;23;19943;-72
2021/11/22 10:08:28;;;;;;;;;;;;;;;0.82;46.88;98822.31;6189546;23;19928;-71
2021/11/22 10:10:58;;;;;;;;;;;;;;;0.64;46.66;98824.94;6211479;23;19924;-72
2021/11/22 10:13:36;;;;;;;;;;;;;;;0.60;46.86;98833.81;6162541;23;20490;-73
2021/11/22 10:16:12;;;;;;;;;;;;;;;0.59;47.31;98837.34;6188250;23;19943;-72
2021/11/22 10:18:45;;;;;;;;;;;;;;;0.71;47.20;98844.53;6189093;23;19920;-70
2021/11/22 10:21:12;;;;;;;;;;;;;;;0.74;46.33;98848.72;6163352;23;19927;-74
2021/11/22 10:23:38;;;;;;;;;;;;;;;0.74;46.74;98848.72;6189299;23;20332;-70
2021/11/22 10:26:05;;;;;;;;;;;;;;;0.58;46.05;98849.47;6189954;23;19947;-73
2021/11/22 10:28:32;;;;;;;;;;;;;;;0.56;45.98;98843.53;6164976;23;19920;-73
2021/11/22 10:30:57;;;;;;;;;;;;;;;0.58;46.07;98852.09;6187591;23;19920;-73
2021/11/22 10:33:25;;;;;;;;;;;;;;;0.78;46.83;98852.84;6189817;23;19920;-72
2021/11/22 10:35:53;;;;;;;;;;;;;;;0.84;45.99;98856.94;6188492;23;19964;-72
2021/11/22 10:38:20;;;;;;;;;;;;;;;0.68;46.38;98855.06;6115456;23;19920;-72
2021/11/22 10:41:06;;;;;;;;;;;;;;;0.79;46.14;98865.78;6188432;23;19920;-70
2021/11/22 10:43:33;;;;;;;;;;;;;;;0.91;46.56;98868.69;6188153;23;19927;-70
2021/11/22 10:45:59;;;;;;;;;;;;;;;1.04;47.02;98869.75;6112620;23;19921;-71
2021/11/22 10:48:26;;;;;;;;;;;;;;;1.02;46.65;98874.19;6162420;23;19971;-73
2021/11/22 10:51:12;;;;;;;;;;;;;;;0.92;46.14;98886.84;6187415;23;19967;-69
2021/11/22 10:53:38;;;;;;;;;;;;;;;1.08;46.58;98886.91;6161309;23;19920;-72
2021/11/22 10:56:04;;;;;;;;;;;;;;;1.61;45.14;98886.81;6161642;23;19974;-73
2021/11/22 10:58:44;;;;;;;;;;;;;;;1.69;44.00;98902.03;6187465;23;19931;-68
2021/11/22 11:01:17;;;;;;;;;;;;;;;1.40;43.94;98900.03;6186424;23;19920;-71
2021/11/22 11:03:52;;;;;;;;;;;;;;;1.14;44.07;98906.59;6186459;23;19924;-70
2021/11/22 11:06:18;;;;;;;;;;;;;;;1.13;43.99;98903.16;6188643;23;19967;-75
2021/11/22 11:08:45;;;;;;;;;;;;;;;1.04;44.39;98905.38;6162071;23;19924;-72
2021/11/22 11:11:13;;;;;;;;;;;;;;;1.03;45.19;98898.47;6188056;23;19927;-73
2021/11/22 11:13:49;;;;;;;;;;;;;;;0.99;45.28;98909.97;6160885;23;19921;-72
2021/11/22 11:16:15;;;;;;;;;;;;;;;0.75;44.85;98926.72;6186828;23;20003;-69
2021/11/22 11:18:42;;;;;;;;;;;;;;;0.68;45.16;98927.09;6187044;23;19951;-71
2021/11/22 11:21:07;;;;;;;;;;;;;;;0.36;45.87;98932.91;6185780;23;19920;-72
2021/11/22 11:23:33;;;;;;;;;;;;;;;0.21;46.30;98937.06;6188489;23;19951;-71
2021/11/22 11:25:59;;;;;;;;;;;;;;;0.22;46.40;98943.13;6186609;23;19920;-76
2021/11/22 11:28:25;;;;;;;;;;;;;;;0.31;46.33;98948.75;6186548;23;20293;-72
2021/11/22 11:30:51;;;;;;;;;;;;;;;0.41;46.12;98948.31;6188314;23;19927;-73
2021/11/22 11:33:17;;;;;;;;;;;;;;;0.44;45.07;98954.22;6188832;23;19920;-70
2021/11/22 11:35:46;;;;;;;;;;;;;;;0.42;46.02;98961.25;6187785;23;19927;-70
2021/11/22 11:38:31;;;;;;;;;;;;;;;0.42;45.65;98966.44;6187910;23;19973;-72
2021/11/22 11:41:12;;;;;;;;;;;;;;;0.46;45.64;98968.00;6188209;23;19994;-71
2021/11/22 11:43:47;;;;;;;;;;;;;;;0.40;45.91;98970.88;6163101;23;20383;-74
2021/11/22 11:46:16;;;;;;;;;;;;;;;0.38;45.70;98975.31;6187132;23;19920;-71
2021/11/22 11:48:58;;;;;;;;;;;;;;;0.36;46.49;98977.13;6189350;23;19981;-72
2021/11/22 11:51:44;;;;;;;;;;;;;;;0.15;46.40;98979.81;6189358;23;19920;-71
2021/11/22 11:54:22;;;;;;;;;;;;;;;0.04;46.11;98971.66;6185180;23;19920;-73
2021/11/22 11:56:54;;;;;;;;;;;;;;;0.01;46.42;98983.97;6161192;23;20042;-74
2021/11/22 11:59:21;;;;;;;;;;;;;;;-0.11;46.66;98993.13;6162754;23;19920;-74
2021/11/22 12:01:58;;;;;;;;;;;;;;;-0.15;46.50;99001.97;6186661;23;19920;-73
2021/11/22 12:04:24;;;;;;;;;;;;;;;-0.22;46.54;98999.66;6186728;23;19920;-75
2021/11/22 12:06:51;;;;;;;;;;;;;;;-0.24;46.59;99005.84;6188049;23;19924;-72
2021/11/22 12:09:31;;;;;;;;;;;;;;;-0.15;46.76;99013.22;6188189;23;20006;-74
2021/11/22 12:11:57;;;;;;;;;;;;;;;-0.08;46.23;99013.81;6187449;23;19921;-73
2021/11/22 12:14:42;;;;;;;;;;;;;;;-0.14;46.63;99014.91;6186300;23;19927;-72
2021/11/22 12:17:08;;;;;;;;;;;;;;;-0.22;47.30;99017.84;6161439;23;19920;-73
2021/11/22 12:19:33;;;;;;;;;;;;;;;-0.20;47.33;99026.44;6186888;23;19927;-71
2021/11/22 12:22:19;;;;;;;;;;;;;;;-0.20;47.20;99031.63;6188019;23;19965;-71
2021/11/22 12:24:47;;;;;;;;;;;;;;;-0.27;47.84;99040.59;6185925;23;19924;-72
2021/11/22 12:27:28;;;;;;;;;;;;;;;-0.12;47.56;99038.25;6187427;23;19921;-71
2021/11/22 12:29:54;;;;;;;;;;;;;;;-0.15;47.65;99043.56;6187895;23;19927;-73
2021/11/22 12:32:23;;;;;;;;;;;;;;;-0.08;47.65;99045.00;6187050;23;19920;-76
2021/11/22 12:34:54;;;;;;;;;;;;;;;-0.05;48.33;99047.44;6188022;23;19924;-72
2021/11/22 12:37:24;;;;;;;;;;;;;;;0.09;47.85;99042.50;6188101;23;19981;-72
2021/11/22 12:40:12;;;;;;;;;;;;;;;0.22;47.61;99057.56;6187398;23;19924;-75
2021/11/22 12:42:54;;;;;;;;;;;;;;;0.13;47.94;99059.63;6186491;23;20018;-71
2021/11/22 12:45:56;;;;;;;;;;;;;;;0.08;47.77;99066.81;6186910;23;19972;-70
2021/11/22 12:48:44;;;;;;;;;;;;;;;0.17;47.92;99075.13;6190087;23;19927;-72
2021/11/22 12:51:11;;;;;;;;;;;;;;;0.10;47.72;99085.78;6179253;23;19928;-71
2021/11/22 12:53:37;;;;;;;;;;;;;;;0.11;47.59;99074.47;6188262;23;19920;-70
2021/11/22 12:56:06;;;;;;;;;;;;;;;0.15;47.17;99089.03;6186027;23;19920;-72
2021/11/22 12:58:33;;;;;;;;;;;;;;;0.07;46.70;99095.47;6186537;23;19920;-73
2021/11/22 13:01:03;;;;;;;;;;;;;;;0.04;47.96;99091.25;6160732;23;19920;-77
2021/11/22 13:03:29;;;;;;;;;;;;;;;0.02;47.37;99089.63;6160531;23;19920;-73